Terminal Aerodrome Forecast
Issued by NWS

Home | Current Version | Previous Version | Text Only | Print | Product List | Glossary On
Versions: 1 2 3 4 5 6 7 8 9 10 11 12 13 14 15 16 17 18 19 20 21 22 23 24 25 26 27 28 29 30 31 32 33 34 35 36 37 38 39 40 41 42 43 44 45 46 47 48 49 50
372
FTUS41 KCTP 251536 AAA
TAFJST
TAF AMD
KJST 251536Z 2516/2612 26010G18KT P6SM SCT040
      TEMPO 2520/2522 VRB20G35KT 2SM +TSRA OVC025CB
     FM252300 28010KT P6SM VCSH BKN050
     FM260200 29007KT P6SM SCT040
     FM260700 26006KT 4SM BR OVC250
     FM260900 26005KT 2SM BR OVC004=

USA.gov is the U.S. government's official web portal to all federal, state and local government web resources and services.